ROU2137 CYEG-CYYC
Flight info
| Callsign | ROU2137 |
|---|---|
| Flight time | N/A |
| Altitude | 24000 |
| Route | OLIMI Q814 AMUNO/N0370F230 Q814 ADVOX ADVOX9 |
| Aircraft | A20N/M-SDE2E3FGHIRWXY/LB1 |
Departure
| Time | 2026-04-28 23:49 |
|---|---|
| Airport | Edmonton International Airport (CYEG) |
Arrival
| Time | N/A |
|---|---|
| Airport | Calgary International Airport (CYYC) |
| Time | Latitude | Longitude | Altitude | Speed | Heading |
|---|---|---|---|---|---|
| 2026-04-28 23:32 | 53.30902 | -113.58859 | 2336 ft | 0 kts | 264° |
| 2026-04-28 23:41 | 53.30904 | -113.58837 | 2337 ft | 2 kts | 262° |
| 2026-04-28 23:42 | 53.30906 | -113.58809 | 2337 ft | 2 kts | 263° |
| 2026-04-28 23:42 | 53.30914 | -113.58790 | 2335 ft | 2 kts | 170° |
| 2026-04-28 23:42 | 53.30921 | -113.58792 | 2339 ft | 0 kts | 177° |
| 2026-04-28 23:45 | 53.30920 | -113.58792 | 2339 ft | 1 kts | 177° |
| 2026-04-28 23:46 | 53.30888 | -113.58791 | 2337 ft | 9 kts | 189° |
| 2026-04-28 23:46 | 53.30848 | -113.58889 | 2333 ft | 10 kts | 272° |
| 2026-04-28 23:46 | 53.30847 | -113.59024 | 2336 ft | 13 kts | 264° |
| 2026-04-28 23:46 | 53.30837 | -113.59193 | 2333 ft | 16 kts | 264° |
| 2026-04-28 23:47 | 53.30831 | -113.59377 | 2332 ft | 11 kts | 269° |
| 2026-04-28 23:47 | 53.30844 | -113.59446 | 2332 ft | 1 kts | 308° |
| 2026-04-28 23:47 | 53.30851 | -113.59454 | 2332 ft | 2 kts | 318° |
| 2026-04-28 23:47 | 53.30868 | -113.59480 | 2333 ft | 4 kts | 317° |
| 2026-04-28 23:48 | 53.30901 | -113.59536 | 2333 ft | 10 kts | 318° |
| 2026-04-28 23:48 | 53.30973 | -113.59524 | 2333 ft | 12 kts | 43° |
| 2026-04-28 23:48 | 53.31056 | -113.59426 | 2334 ft | 25 kts | 32° |
| 2026-04-28 23:48 | 53.31397 | -113.59037 | 2338 ft | 92 kts | 35° |
| 2026-04-28 23:49 | 53.32074 | -113.58251 | 2339 ft | 144 kts | 34° |
| 2026-04-28 23:49 | 53.32973 | -113.57243 | 2692 ft | 155 kts | 33° |
| 2026-04-28 23:49 | 53.33833 | -113.56218 | 3446 ft | 155 kts | 34° |
| 2026-04-28 23:49 | 53.34717 | -113.55158 | 4111 ft | 161 kts | 34° |
| 2026-04-28 23:50 | 53.35697 | -113.54054 | 4639 ft | 177 kts | 31° |
| 2026-04-28 23:50 | 53.36789 | -113.52929 | 5139 ft | 193 kts | 29° |
| 2026-04-28 23:50 | 53.38002 | -113.51735 | 5582 ft | 217 kts | 31° |
| 2026-04-28 23:50 | 53.39320 | -113.50134 | 5873 ft | 250 kts | 36° |
| 2026-04-28 23:51 | 53.40763 | -113.48289 | 6030 ft | 266 kts | 36° |
| 2026-04-28 23:51 | 53.42220 | -113.46459 | 6025 ft | 263 kts | 35° |
| 2026-04-28 23:51 | 53.43619 | -113.44537 | 6010 ft | 264 kts | 49° |
| 2026-04-28 23:51 | 53.44457 | -113.41782 | 6029 ft | 269 kts | 76° |
| 2026-04-28 23:52 | 53.44420 | -113.38657 | 6153 ft | 276 kts | 105° |
| 2026-04-28 23:52 | 53.43448 | -113.35833 | 6796 ft | 281 kts | 132° |
| 2026-04-28 23:52 | 53.42081 | -113.33516 | 7822 ft | 283 kts | 137° |
| 2026-04-28 23:52 | 53.40409 | -113.31835 | 8667 ft | 291 kts | 163° |
| 2026-04-28 23:53 | 53.38408 | -113.31492 | 9537 ft | 296 kts | 189° |
| 2026-04-28 23:53 | 53.36421 | -113.32477 | 10340 ft | 302 kts | 203° |
| 2026-04-28 23:53 | 53.34396 | -113.33799 | 10703 ft | 325 kts | 204° |
| 2026-04-28 23:53 | 53.32231 | -113.35222 | 11045 ft | 346 kts | 204° |
| 2026-04-28 23:54 | 53.29940 | -113.36731 | 11800 ft | 353 kts | 204° |
| 2026-04-28 23:54 | 53.27627 | -113.38246 | 12624 ft | 358 kts | 204° |
| 2026-04-28 23:54 | 53.25315 | -113.39787 | 13420 ft | 363 kts | 205° |
| 2026-04-28 23:54 | 53.22998 | -113.41489 | 14192 ft | 368 kts | 207° |
| 2026-04-28 23:55 | 53.20721 | -113.43218 | 14981 ft | 369 kts | 207° |
| 2026-04-28 23:55 | 53.18393 | -113.44980 | 15749 ft | 372 kts | 207° |
| 2026-04-28 23:55 | 53.16003 | -113.46768 | 16505 ft | 376 kts | 206° |
| 2026-04-28 23:55 | 53.13613 | -113.48538 | 17262 ft | 378 kts | 206° |
| 2026-04-28 23:56 | 53.11210 | -113.50307 | 18005 ft | 382 kts | 206° |
| 2026-04-28 23:56 | 53.08763 | -113.52102 | 18688 ft | 385 kts | 206° |
| 2026-04-28 23:56 | 53.06279 | -113.53921 | 19298 ft | 389 kts | 206° |
| 2026-04-28 23:56 | 53.03718 | -113.55793 | 19927 ft | 393 kts | 206° |
| 2026-04-28 23:57 | 53.01282 | -113.57573 | 20499 ft | 397 kts | 206° |
| 2026-04-28 23:57 | 52.98723 | -113.59439 | 21097 ft | 401 kts | 206° |
| 2026-04-28 23:57 | 52.96190 | -113.61285 | 21679 ft | 405 kts | 206° |
| 2026-04-28 23:57 | 52.93573 | -113.63189 | 22257 ft | 409 kts | 206° |
| 2026-04-28 23:58 | 52.90974 | -113.65078 | 22822 ft | 413 kts | 206° |
| 2026-04-28 23:58 | 52.88311 | -113.67011 | 23365 ft | 418 kts | 206° |
| 2026-04-28 23:58 | 52.85624 | -113.68961 | 23885 ft | 422 kts | 206° |
| 2026-04-28 23:58 | 52.82948 | -113.70899 | 24107 ft | 424 kts | 206° |
| 2026-04-28 23:59 | 52.80237 | -113.72859 | 24169 ft | 424 kts | 206° |
| 2026-04-28 23:59 | 52.77519 | -113.74821 | 24164 ft | 424 kts | 206° |
| 2026-04-28 23:59 | 52.74834 | -113.76758 | 24172 ft | 424 kts | 206° |
| 2026-04-28 23:59 | 52.72116 | -113.78716 | 24165 ft | 424 kts | 206° |
| 2026-04-29 00:00 | 52.69416 | -113.80659 | 24167 ft | 424 kts | 206° |
| 2026-04-29 00:00 | 52.66776 | -113.82554 | 24164 ft | 425 kts | 206° |
| 2026-04-29 00:00 | 52.64039 | -113.84518 | 24168 ft | 425 kts | 206° |
| 2026-04-29 00:00 | 52.61298 | -113.86482 | 24165 ft | 425 kts | 206° |
| 2026-04-29 00:01 | 52.58610 | -113.88405 | 24165 ft | 425 kts | 206° |
| 2026-04-29 00:01 | 52.55876 | -113.90359 | 24161 ft | 425 kts | 206° |
| 2026-04-29 00:01 | 52.53181 | -113.92283 | 24158 ft | 426 kts | 206° |
| 2026-04-29 00:01 | 52.50438 | -113.94238 | 24148 ft | 426 kts | 206° |
| 2026-04-29 00:02 | 52.47739 | -113.96160 | 24133 ft | 426 kts | 206° |
| 2026-04-29 00:02 | 52.45042 | -113.98077 | 24132 ft | 426 kts | 206° |
| 2026-04-29 00:02 | 52.42310 | -114.00016 | 24121 ft | 426 kts | 206° |
| 2026-04-29 00:02 | 52.39571 | -114.01958 | 24115 ft | 426 kts | 206° |
| 2026-04-29 00:03 | 52.36872 | -114.03869 | 24106 ft | 426 kts | 206° |
| 2026-04-29 00:03 | 52.34155 | -114.05789 | 24100 ft | 426 kts | 206° |
| 2026-04-29 00:03 | 52.31448 | -114.07701 | 24097 ft | 426 kts | 206° |
| 2026-04-29 00:03 | 52.28707 | -114.09634 | 24090 ft | 426 kts | 206° |
| 2026-04-29 00:04 | 52.25985 | -114.11551 | 24092 ft | 426 kts | 206° |
| 2026-04-29 00:04 | 52.23248 | -114.13476 | 24090 ft | 426 kts | 206° |
| 2026-04-29 00:04 | 52.20549 | -114.15371 | 24089 ft | 426 kts | 206° |
| 2026-04-29 00:04 | 52.17817 | -114.17287 | 24095 ft | 426 kts | 206° |
| 2026-04-29 00:05 | 52.15100 | -114.19190 | 24100 ft | 426 kts | 206° |
| 2026-04-29 00:05 | 52.12384 | -114.21090 | 24102 ft | 427 kts | 206° |
| 2026-04-29 00:05 | 52.09635 | -114.23010 | 24110 ft | 426 kts | 206° |
| 2026-04-29 00:05 | 52.06937 | -114.24893 | 24117 ft | 426 kts | 206° |
| 2026-04-29 00:06 | 52.04200 | -114.26800 | 24121 ft | 426 kts | 206° |
| 2026-04-29 00:06 | 52.01482 | -114.28690 | 24126 ft | 426 kts | 206° |
| 2026-04-29 00:06 | 51.98748 | -114.30590 | 24133 ft | 426 kts | 206° |
| 2026-04-29 00:06 | 51.96001 | -114.32497 | 24136 ft | 426 kts | 206° |
| 2026-04-29 00:07 | 51.93301 | -114.34367 | 24146 ft | 426 kts | 206° |
| 2026-04-29 00:07 | 51.90559 | -114.36265 | 24149 ft | 426 kts | 206° |
| 2026-04-29 00:07 | 51.87845 | -114.38141 | 24142 ft | 426 kts | 206° |
| 2026-04-29 00:07 | 51.85107 | -114.40031 | 24132 ft | 426 kts | 206° |
| 2026-04-29 00:08 | 51.82373 | -114.41915 | 23911 ft | 424 kts | 206° |
| 2026-04-29 00:08 | 51.79676 | -114.43772 | 23287 ft | 426 kts | 206° |
| 2026-04-29 00:08 | 51.76922 | -114.45667 | 22391 ft | 429 kts | 206° |
| 2026-04-29 00:08 | 51.74178 | -114.47554 | 21513 ft | 432 kts | 205° |
| 2026-04-29 00:09 | 51.71408 | -114.49453 | 20872 ft | 428 kts | 205° |
| 2026-04-29 00:09 | 51.68695 | -114.51309 | 20264 ft | 423 kts | 205° |
| 2026-04-29 00:09 | 51.66019 | -114.53138 | 19665 ft | 419 kts | 205° |
| 2026-04-29 00:09 | 51.63329 | -114.54975 | 19081 ft | 414 kts | 205° |
| 2026-04-29 00:10 | 51.60676 | -114.56603 | 18532 ft | 410 kts | 196° |
| 2026-04-29 00:10 | 51.57839 | -114.57161 | 17951 ft | 407 kts | 179° |
| 2026-04-29 00:10 | 51.55076 | -114.56439 | 17357 ft | 404 kts | 162° |
| 2026-04-29 00:10 | 51.52580 | -114.54476 | 16882 ft | 397 kts | 144° |
| 2026-04-29 00:11 | 51.50483 | -114.51663 | 16357 ft | 391 kts | 136° |
| 2026-04-29 00:11 | 51.48500 | -114.48705 | 15832 ft | 387 kts | 137° |
| 2026-04-29 00:11 | 51.44807 | -114.42541 | 14797 ft | 380 kts | 133° |
| 2026-04-29 00:12 | 51.42961 | -114.39518 | 14279 ft | 377 kts | 134° |
| 2026-04-29 00:12 | 51.41100 | -114.36567 | 13729 ft | 375 kts | 135° |
| 2026-04-29 00:12 | 51.39868 | -114.34638 | 13381 ft | 373 kts | 135° |
| 2026-04-29 00:12 | 51.37647 | -114.31177 | 12768 ft | 368 kts | 135° |
| 2026-04-29 00:13 | 51.35818 | -114.28331 | 12256 ft | 365 kts | 136° |
| 2026-04-29 00:13 | 51.34004 | -114.25509 | 11760 ft | 361 kts | 136° |